Time;durP1;ratioP1;P1;durP2;ratioP2;P2;SDS_P1;SDS_P2;PMS_P1;PMS_P2;Temp;Humidity;BMP_temperature;BMP_pressure;BME280_temperature;BME280_humidity;BME280_pressure;Samples;Min_cycle;Max_cycle;Signal;HPM_P1;HPM_P2
2023/11/05 00:01:51;;;;;;;16.40;15.40;;;8.50;90.20;;;;;;5039163;28;20259;-89
2023/11/05 00:04:17;;;;;;;16.03;15.00;;;8.50;90.20;;;;;;5057136;28;20172;-89
2023/11/05 00:06:43;;;;;;;16.20;15.30;;;8.50;90.10;;;;;;5038778;28;20230;-89
2023/11/05 00:09:08;;;;;;;16.20;15.20;;;8.50;90.20;;;;;;5038977;28;20180;-88
2023/11/05 00:11:35;;;;;;;16.87;15.83;;;8.40;90.10;;;;;;5056551;28;20705;-88
2023/11/05 00:14:02;;;;;;;16.63;15.63;;;8.50;90.30;;;;;;5038789;28;20271;-89
2023/11/05 00:16:27;;;;;;;16.50;15.50;;;8.50;90.30;;;;;;5038793;28;20204;-88
2023/11/05 00:18:53;;;;;;;17.03;15.93;;;8.50;90.20;;;;;;5038601;28;20601;-89
2023/11/05 00:21:19;;;;;;;16.50;15.20;;;8.50;90.20;;;;;;5038613;28;20648;-89
2023/11/05 00:23:44;;;;;;;16.20;14.33;;;8.50;90.20;;;;;;5038966;28;20221;-89
2023/11/05 00:26:10;;;;;;;14.83;13.83;;;8.50;90.30;;;;;;5038805;28;20643;-88
2023/11/05 00:28:35;;;;;;;15.40;14.40;;;8.50;90.30;;;;;;5038748;28;20569;-88
2023/11/05 00:31:01;;;;;;;16.13;14.80;;;8.50;90.50;;;;;;5038577;28;20180;-88
2023/11/05 00:33:26;;;;;;;14.67;13.67;;;8.60;90.40;;;;;;5056932;28;20173;-89
2023/11/05 00:35:52;;;;;;;14.93;13.77;;;8.50;90.30;;;;;;5038501;28;20199;-89
2023/11/05 00:38:17;;;;;;;14.90;13.50;;;8.60;90.40;;;;;;5056575;28;20168;-89
2023/11/05 00:40:43;;;;;;;14.07;13.07;;;8.50;90.40;;;;;;5038290;28;20181;-90
2023/11/05 00:43:08;;;;;;;14.17;13.17;;;8.50;90.50;;;;;;5056278;28;20263;-89
2023/11/05 00:45:34;;;;;;;13.27;12.47;;;8.50;90.60;;;;;;5038405;28;20198;-89
2023/11/05 00:48:00;;;;;;;14.07;13.27;;;8.50;90.70;;;;;;5038097;28;20183;-89
2023/11/05 00:50:25;;;;;;;15.37;14.47;;;8.60;90.70;;;;;;5056072;28;20658;-89
2023/11/05 00:52:52;;;;;;;15.63;14.63;;;8.50;90.70;;;;;;5056057;28;20168;-89
2023/11/05 00:55:17;;;;;;;16.63;15.27;;;8.60;90.70;;;;;;5055645;28;20220;-89
2023/11/05 00:57:43;;;;;;;14.87;13.97;;;8.60;90.70;;;;;;5055917;28;20246;-89
2023/11/05 01:00:12;;;;;;;15.17;14.27;;;8.50;90.80;;;;;;5055813;28;20178;-90
2023/11/05 01:02:38;;;;;;;15.00;13.83;;;8.50;90.80;;;;;;5037846;28;20200;-89
2023/11/05 01:05:04;;;;;;;15.23;14.23;;;8.50;90.90;;;;;;5055843;28;20188;-87
2023/11/05 01:07:29;;;;;;;16.07;15.07;;;8.50;91.00;;;;;;5038179;28;20234;-88
2023/11/05 01:09:55;;;;;;;17.20;16.10;;;8.60;91.00;;;;;;5038149;28;20172;-90
2023/11/05 01:12:21;;;;;;;16.57;15.40;;;8.60;91.00;;;;;;5055678;28;20220;-90
2023/11/05 01:14:47;;;;;;;16.67;15.67;;;8.60;90.90;;;;;;5037539;28;20180;-90
2023/11/05 01:17:13;;;;;;;15.43;14.43;;;8.60;91.00;;;;;;5037569;28;20204;-90
2023/11/05 01:19:40;;;;;;;17.10;16.10;;;8.50;91.10;;;;;;5037493;28;20183;-90
2023/11/05 01:22:06;;;;;;;17.07;15.97;;;8.50;91.20;;;;;;5037394;28;20180;-88
2023/11/05 01:24:31;;;;;;;16.27;15.07;;;8.60;91.30;;;;;;5055323;28;20168;-89
2023/11/05 01:26:57;;;;;;;14.40;13.57;;;8.60;91.30;;;;;;5037620;28;20211;-89
2023/11/05 01:29:23;;;;;;;15.80;14.80;;;8.40;91.40;;;;;;5055561;28;20238;-89
2023/11/05 01:31:48;;;;;;;15.00;14.13;;;8.50;91.60;;;;;;5037393;28;20184;-89
2023/11/05 01:34:14;;;;;;;14.93;14.10;;;8.50;91.70;;;;;;5037327;28;20230;-89
2023/11/05 01:36:40;;;;;;;15.07;13.93;;;8.50;91.70;;;;;;5054939;28;20211;-89
2023/11/05 01:39:06;;;;;;;13.20;12.30;;;8.50;91.80;;;;;;5037171;28;20636;-88
2023/11/05 01:41:32;;;;;;;14.33;13.43;;;8.50;91.90;;;;;;5036831;28;20238;-89
2023/11/05 01:43:58;;;;;;;14.23;13.33;;;8.50;92.00;;;;;;5037160;28;20175;-89
2023/11/05 01:46:25;;;;;;;13.63;12.83;;;8.60;92.00;;;;;;5036862;28;20219;-89
2023/11/05 01:48:50;;;;;;;13.57;12.57;;;8.50;92.00;;;;;;5055944;28;20184;-89
2023/11/05 01:51:16;;;;;;;15.40;13.97;;;8.50;92.20;;;;;;5037931;28;20172;-89
2023/11/05 01:53:45;;;;;;;14.57;13.63;;;8.60;92.30;;;;;;5055920;28;20631;-89
2023/11/05 01:56:11;;;;;;;17.40;15.60;;;8.50;92.40;;;;;;5037383;28;20345;-89
2023/11/05 01:58:38;;;;;;;13.63;12.50;;;8.50;92.70;;;;;;5055137;28;20652;-89
2023/11/05 02:01:05;;;;;;;13.50;12.40;;;8.50;92.80;;;;;;5055686;28;20176;-88
2023/11/05 02:03:31;;;;;;;11.40;10.60;;;8.50;92.90;;;;;;5037579;28;20539;-89
2023/11/05 02:05:58;;;;;;;12.10;11.10;;;8.50;93.10;;;;;;5036787;28;20192;-89
2023/11/05 02:08:23;;;;;;;12.17;11.27;;;8.50;93.20;;;;;;5054791;28;20179;-89
2023/11/05 02:10:49;;;;;;;12.90;11.60;;;8.50;93.20;;;;;;5037775;28;20188;-89
2023/11/05 02:13:14;;;;;;;12.63;11.37;;;8.50;93.30;;;;;;5036652;28;20172;-89
2023/11/05 02:15:40;;;;;;;12.17;11.17;;;8.60;93.40;;;;;;5036716;28;20195;-89
2023/11/05 02:18:06;;;;;;;12.37;11.37;;;8.60;93.40;;;;;;5036765;28;20562;-90
2023/11/05 02:20:31;;;;;;;12.10;11.17;;;8.60;93.50;;;;;;5036616;28;20175;-89
2023/11/05 02:22:57;;;;;;;22.53;20.93;;;8.70;93.50;;;;;;5055276;28;20271;-89
2023/11/05 02:25:23;;;;;;;23.07;21.67;;;8.60;93.50;;;;;;5035922;28;20656;-89
2023/11/05 02:27:50;;;;;;;22.60;21.03;;;8.70;93.50;;;;;;5036069;28;20321;-90
2023/11/05 02:30:22;;;;;;;23.07;21.23;;;8.60;93.50;;;;;;5036535;28;20210;-90
2023/11/05 02:32:48;;;;;;;13.27;12.47;;;8.60;93.50;;;;;;5036152;28;20172;-90
2023/11/05 02:35:14;;;;;;;13.97;13.07;;;8.70;93.60;;;;;;5053684;28;20200;-90
2023/11/05 02:37:40;;;;;;;25.40;23.70;;;8.70;93.60;;;;;;5035704;28;20253;-89
2023/11/05 02:40:10;;;;;;;26.90;25.00;;;8.70;93.60;;;;;;5035906;28;20179;-90
2023/11/05 02:42:36;;;;;;;26.87;25.27;;;8.70;93.60;;;;;;5035895;28;20525;-89
2023/11/05 02:45:03;;;;;;;14.97;14.07;;;8.70;93.60;;;;;;5035640;28;20203;-89
2023/11/05 02:47:29;;;;;;;15.60;14.70;;;8.70;93.70;;;;;;5035649;28;20263;-88
2023/11/05 02:49:55;;;;;;;28.70;27.10;;;8.70;93.60;;;;;;5053494;28;20263;-89
2023/11/05 02:52:21;;;;;;;28.57;26.87;;;8.70;93.70;;;;;;5035581;28;20180;-90
2023/11/05 02:54:48;;;;;;;19.30;18.03;;;8.70;93.60;;;;;;5053262;28;20176;-89
2023/11/05 02:57:14;;;;;;;16.43;15.23;;;8.70;93.70;;;;;;5035489;28;20231;-90
2023/11/05 02:59:39;;;;;;;16.50;15.27;;;8.70;93.70;;;;;;5035560;28;20187;-88
2023/11/05 03:02:05;;;;;;;30.30;28.30;;;8.70;93.60;;;;;;5035505;28;20183;-90
2023/11/05 03:04:31;;;;;;;28.10;26.50;;;8.70;93.70;;;;;;5035545;28;20225;-90
2023/11/05 03:06:56;;;;;;;15.43;14.43;;;8.60;93.60;;;;;;5035181;28;20230;-88
2023/11/05 03:09:24;;;;;;;15.80;14.70;;;8.70;93.70;;;;;;5053747;28;20215;-90
2023/11/05 03:11:52;;;;;;;24.23;22.73;;;8.60;93.70;;;;;;5053202;28;20172;-88
2023/11/05 03:14:17;;;;;;;27.97;26.27;;;8.70;93.70;;;;;;5035649;28;20180;-90
2023/11/05 03:16:43;;;;;;;29.83;27.93;;;8.70;93.60;;;;;;5035330;28;20199;-90
2023/11/05 03:19:08;;;;;;;15.93;14.70;;;8.60;93.60;;;;;;5035341;28;20639;-89
2023/11/05 03:21:35;;;;;;;16.07;15.07;;;8.60;93.60;;;;;;5053390;28;20191;-88
2023/11/05 03:24:01;;;;;;;30.73;28.37;;;8.70;93.70;;;;;;5035214;28;20164;-88
2023/11/05 03:26:27;;;;;;;28.73;26.77;;;8.60;93.60;;;;;;5053037;28;20191;-88
2023/11/05 03:28:53;;;;;;;29.23;27.40;;;8.60;93.60;;;;;;5035145;28;20255;-90
2023/11/05 03:31:19;;;;;;;16.23;15.33;;;8.60;93.70;;;;;;5055618;28;20647;-89
2023/11/05 03:33:45;;;;;;;16.63;15.60;;;8.60;93.70;;;;;;5039360;28;20203;-89
2023/11/05 03:36:11;;;;;;;29.43;27.40;;;8.70;93.80;;;;;;5039007;28;20231;-90
2023/11/05 03:38:37;;;;;;;29.20;26.93;;;8.70;93.70;;;;;;5040178;28;20187;-90
2023/11/05 03:41:03;;;;;;;16.33;15.20;;;8.70;93.80;;;;;;5039275;28;20171;-90
2023/11/05 03:43:29;;;;;;;17.10;15.67;;;8.70;93.80;;;;;;5057018;28;20183;-89
2023/11/05 03:45:55;;;;;;;16.03;15.07;;;8.80;93.80;;;;;;5056789;28;20199;-89
2023/11/05 03:48:21;;;;;;;28.23;26.37;;;8.80;93.80;;;;;;5039096;28;20187;-89
2023/11/05 03:50:47;;;;;;;25.93;24.00;;;8.80;93.80;;;;;;5038995;28;20211;-89
2023/11/05 03:53:13;;;;;;;16.23;15.10;;;8.70;93.80;;;;;;5039023;28;20183;-89
2023/11/05 03:55:39;;;;;;;16.33;14.97;;;8.80;93.80;;;;;;5038709;28;20281;-89
2023/11/05 03:58:04;;;;;;;28.27;26.47;;;8.80;93.80;;;;;;5056717;28;20209;-89
2023/11/05 04:00:30;;;;;;;28.90;26.77;;;8.70;93.70;;;;;;5038825;28;20199;-91
2023/11/05 04:02:58;;;;;;;28.93;27.03;;;8.80;93.80;;;;;;5038746;28;20180;-89
2023/11/05 04:05:24;;;;;;;16.20;15.00;;;8.80;93.80;;;;;;5038709;28;20218;-89
2023/11/05 04:07:49;;;;;;;15.80;14.50;;;8.70;93.70;;;;;;5038826;28;20710;-89
2023/11/05 04:10:16;;;;;;;15.07;13.87;;;8.70;93.80;;;;;;5038658;28;20611;-90
2023/11/05 04:12:41;;;;;;;15.70;14.13;;;8.70;93.70;;;;;;5038626;28;20178;-89
2023/11/05 04:15:08;;;;;;;15.60;14.47;;;8.70;93.80;;;;;;5038535;28;20568;-89
2023/11/05 04:17:34;;;;;;;14.30;13.20;;;8.70;93.80;;;;;;5038391;28;20203;-89
2023/11/05 04:20:00;;;;;;;14.07;13.17;;;8.70;93.80;;;;;;5056251;28;20593;-89
2023/11/05 04:22:26;;;;;;;14.27;13.20;;;8.70;93.80;;;;;;5039181;28;20183;-89
2023/11/05 04:24:55;;;;;;;15.20;13.77;;;8.70;93.80;;;;;;5038371;28;20180;-89
2023/11/05 04:27:20;;;;;;;15.30;14.30;;;8.70;93.80;;;;;;5038296;28;20168;-90
2023/11/05 04:29:46;;;;;;;15.17;14.10;;;8.80;93.80;;;;;;5038277;28;20176;-89
2023/11/05 04:32:13;;;;;;;15.40;14.10;;;8.80;93.80;;;;;;5056143;28;20306;-90
2023/11/05 04:34:38;;;;;;;15.70;14.50;;;8.80;93.80;;;;;;5038244;28;20183;-90
2023/11/05 04:37:05;;;;;;;14.50;13.30;;;8.70;93.70;;;;;;5038038;28;20200;-89
2023/11/05 04:39:31;;;;;;;16.33;15.00;;;8.80;93.70;;;;;;5055946;28;20168;-90
2023/11/05 04:41:57;;;;;;;14.90;13.90;;;8.80;93.70;;;;;;5055401;28;20249;-89
2023/11/05 04:44:22;;;;;;;15.53;14.53;;;8.80;93.70;;;;;;5055760;28;20175;-89
2023/11/05 04:46:48;;;;;;;15.70;14.37;;;8.80;93.60;;;;;;5037973;28;20195;-89
2023/11/05 04:49:13;;;;;;;15.80;14.43;;;8.80;93.70;;;;;;5037942;28;20710;-88
2023/11/05 04:51:43;;;;;;;14.10;12.97;;;8.90;93.60;;;;;;5037922;28;20180;-89
2023/11/05 04:54:09;;;;;;;17.13;15.60;;;8.80;93.60;;;;;;5037874;28;20211;-90
2023/11/05 04:56:35;;;;;;;15.90;14.63;;;8.90;93.60;;;;;;5037740;28;20199;-89
2023/11/05 04:59:01;;;;;;;15.30;14.07;;;8.90;93.60;;;;;;5037652;28;20208;-90
2023/11/05 05:01:27;;;;;;;15.53;14.60;;;8.80;93.50;;;;;;5037656;28;20172;-89
2023/11/05 05:03:52;;;;;;;15.20;14.03;;;8.90;93.60;;;;;;5037711;28;20179;-89
2023/11/05 05:06:19;;;;;;;15.33;14.23;;;8.90;93.50;;;;;;5037619;28;20209;-89
2023/11/05 05:08:45;;;;;;;14.77;13.67;;;8.90;93.50;;;;;;5037543;28;20262;-89
2023/11/05 05:11:12;;;;;;;15.43;14.23;;;8.90;93.50;;;;;;5055352;28;20255;-89
2023/11/05 05:13:37;;;;;;;16.27;14.93;;;8.90;93.50;;;;;;5037487;28;20258;-89
2023/11/05 05:16:06;;;;;;;15.73;14.73;;;8.90;93.50;;;;;;5037348;28;20670;-89
2023/11/05 05:18:31;;;;;;;16.50;15.30;;;8.90;93.50;;;;;;5037388;28;20678;-89
2023/11/05 05:20:57;;;;;;;15.63;14.53;;;9.00;93.50;;;;;;5037470;28;20168;-89
2023/11/05 05:23:22;;;;;;;15.57;14.57;;;9.00;93.50;;;;;;5037306;28;20168;-89
2023/11/05 05:25:48;;;;;;;16.30;15.30;;;9.00;93.40;;;;;;5037183;28;20188;-89
2023/11/05 05:28:13;;;;;;;17.30;14.83;;;9.00;93.40;;;;;;5037244;28;20179;-90
2023/11/05 05:30:39;;;;;;;17.10;14.97;;;8.90;93.40;;;;;;5054913;28;20560;-90
2023/11/05 05:33:06;;;;;;;15.17;14.17;;;8.90;93.40;;;;;;5037091;28;20225;-89
2023/11/05 05:35:32;;;;;;;28.50;26.50;;;8.90;93.40;;;;;;5054790;28;20211;-89
2023/11/05 05:37:57;;;;;;;29.60;27.40;;;9.00;93.50;;;;;;5054756;28;20744;-90
2023/11/05 05:40:23;;;;;;;29.27;27.27;;;9.00;93.40;;;;;;5037004;28;20202;-89
2023/11/05 05:42:49;;;;;;;30.30;28.20;;;9.10;93.40;;;;;;5037127;28;20199;-89
2023/11/05 05:45:14;;;;;;;16.73;15.67;;;9.10;93.40;;;;;;5036722;28;20199;-90
2023/11/05 05:47:41;;;;;;;16.73;15.53;;;9.00;93.30;;;;;;5054593;28;20183;-89
2023/11/05 05:50:07;;;;;;;28.87;27.17;;;9.00;93.30;;;;;;5036796;28;20176;-89
2023/11/05 05:52:33;;;;;;;29.17;27.37;;;9.00;93.30;;;;;;5036591;28;20310;-91
2023/11/05 05:55:00;;;;;;;16.73;15.27;;;9.00;93.30;;;;;;5053915;28;20194;-89
2023/11/05 05:57:26;;;;;;;19.53;17.77;;;9.00;93.30;;;;;;5036548;28;20200;-89
2023/11/05 05:59:52;;;;;;;27.83;26.03;;;9.00;93.30;;;;;;5036458;28;20541;-90
2023/11/05 06:02:17;;;;;;;32.03;29.67;;;9.00;93.30;;;;;;5036506;28;20218;-90
2023/11/05 06:04:43;;;;;;;31.37;29.37;;;9.10;93.40;;;;;;5036765;28;20225;-90
2023/11/05 06:07:08;;;;;;;19.53;18.03;;;9.00;93.30;;;;;;5036408;28;20172;-90
2023/11/05 06:09:34;;;;;;;19.70;18.00;;;9.00;93.30;;;;;;5036311;28;20176;-89
2023/11/05 06:11:59;;;;;;;34.70;32.13;;;9.10;93.30;;;;;;5054167;28;20198;-90
2023/11/05 06:14:26;;;;;;;34.93;32.30;;;9.10;93.20;;;;;;5054216;28;20179;-90
2023/11/05 06:16:52;;;;;;;31.07;29.07;;;9.00;93.20;;;;;;5053919;28;20222;-89
2023/11/05 06:19:17;;;;;;;19.37;18.03;;;9.00;93.30;;;;;;5036217;28;20640;-90
2023/11/05 06:21:44;;;;;;;19.00;17.90;;;9.10;93.20;;;;;;5036187;28;20255;-89
2023/11/05 06:24:11;;;;;;;32.37;30.27;;;9.00;93.20;;;;;;5036175;28;20179;-89
2023/11/05 06:26:37;;;;;;;33.17;31.27;;;9.00;93.20;;;;;;5035966;28;20196;-90
2023/11/05 06:29:04;;;;;;;20.97;19.53;;;9.00;93.20;;;;;;5053883;28;20172;-89
2023/11/05 06:31:30;;;;;;;19.93;18.53;;;9.10;93.20;;;;;;5036130;28;20263;-89
2023/11/05 06:33:55;;;;;;;25.83;24.13;;;9.00;93.10;;;;;;5035936;28;20265;-89
2023/11/05 06:36:21;;;;;;;34.10;31.80;;;9.20;93.20;;;;;;5035678;28;20211;-89
2023/11/05 06:38:46;;;;;;;33.23;30.97;;;9.00;93.10;;;;;;5035908;28;20179;-90
2023/11/05 06:41:12;;;;;;;19.47;17.97;;;9.00;93.10;;;;;;5036005;28;20196;-89
2023/11/05 06:43:37;;;;;;;24.60;22.57;;;9.10;93.10;;;;;;5035909;28;20169;-90
2023/11/05 06:46:03;;;;;;;39.90;37.37;;;9.10;93.10;;;;;;5036045;28;20223;-89
2023/11/05 06:48:29;;;;;;;37.93;34.97;;;9.10;93.20;;;;;;5035953;28;20172;-89
2023/11/05 06:50:54;;;;;;;30.53;28.27;;;9.20;93.10;;;;;;5053469;28;20550;-90
2023/11/05 06:53:20;;;;;;;24.47;22.87;;;9.10;93.10;;;;;;5053470;28;20180;-90
2023/11/05 06:55:45;;;;;;;25.03;23.40;;;9.00;93.00;;;;;;5035603;28;20195;-89
2023/11/05 06:58:15;;;;;;;40.87;38.10;;;9.00;93.10;;;;;;5035467;28;20575;-89
2023/11/05 07:00:41;;;;;;;40.30;37.50;;;9.00;93.10;;;;;;5053353;28;20617;-89
2023/11/05 07:03:07;;;;;;;22.73;21.33;;;9.10;93.10;;;;;;5035599;28;20206;-89
2023/11/05 07:05:33;;;;;;;22.93;21.33;;;9.10;93.10;;;;;;5035155;28;20191;-89
2023/11/05 07:07:58;;;;;;;28.53;26.57;;;9.10;93.10;;;;;;5035489;28;20176;-89
2023/11/05 07:10:25;;;;;;;27.07;25.07;;;9.20;93.10;;;;;;5035437;28;20663;-89
2023/11/05 07:12:51;;;;;;;30.07;28.03;;;9.20;93.10;;;;;;5035473;28;20667;-89
2023/11/05 07:15:18;;;;;;;26.70;24.80;;;9.20;93.10;;;;;;5035451;28;20318;-89
2023/11/05 07:17:45;;;;;;;27.13;24.77;;;9.20;93.00;;;;;;5035197;28;20699;-91
2023/11/05 07:20:13;;;;;;;24.83;23.13;;;9.30;93.00;;;;;;5053211;28;20716;-89
2023/11/05 07:22:40;;;;;;;22.70;21.10;;;9.30;92.90;;;;;;5053125;28;20175;-90
2023/11/05 07:25:08;;;;;;;26.27;23.90;;;9.40;92.90;;;;;;5035306;28;20206;-89
2023/11/05 07:27:34;;;;;;;27.07;24.53;;;9.40;92.90;;;;;;5035330;28;20247;-89
2023/11/05 07:29:59;;;;;;;25.50;23.83;;;9.50;92.90;;;;;;5053163;28;20168;-89
2023/11/05 07:32:25;;;;;;;25.83;23.90;;;9.50;92.80;;;;;;5052969;28;20184;-90
2023/11/05 07:34:51;;;;;;;28.47;26.27;;;9.50;92.70;;;;;;5052906;28;20180;-89
2023/11/05 07:37:17;;;;;;;28.13;26.23;;;9.50;92.70;;;;;;5035121;28;20702;-89
2023/11/05 07:39:42;;;;;;;27.27;25.47;;;9.50;92.70;;;;;;5052956;28;20172;-89
2023/11/05 07:42:08;;;;;;;27.50;25.60;;;9.50;92.70;;;;;;5053147;28;20188;-90
2023/11/05 07:44:33;;;;;;;28.37;26.20;;;9.50;92.60;;;;;;5035137;28;20185;-90
2023/11/05 07:46:59;;;;;;;26.83;24.97;;;9.50;92.70;;;;;;5052793;28;20196;-90
2023/11/05 07:49:24;;;;;;;28.40;26.43;;;9.50;92.70;;;;;;5035069;28;20531;-89
2023/11/05 07:51:50;;;;;;;28.20;26.17;;;9.50;92.80;;;;;;5052819;28;20176;-90
2023/11/05 07:54:16;;;;;;;28.43;25.87;;;9.50;92.70;;;;;;5035500;28;20184;-90
2023/11/05 07:56:42;;;;;;;26.83;24.77;;;9.60;92.70;;;;;;5034858;28;20208;-90
2023/11/05 07:59:07;;;;;;;28.73;26.73;;;9.60;92.80;;;;;;5035026;28;20655;-89
2023/11/05 08:01:33;;;;;;;30.43;28.43;;;9.60;92.80;;;;;;5034890;28;20176;-89
2023/11/05 08:03:59;;;;;;;29.03;26.90;;;9.70;92.80;;;;;;5034869;28;20183;-90
2023/11/05 08:06:25;;;;;;;29.80;27.47;;;9.60;92.80;;;;;;5052613;28;20196;-90
2023/11/05 08:08:51;;;;;;;30.73;28.17;;;9.70;92.80;;;;;;5034795;28;20183;-89
2023/11/05 08:11:17;;;;;;;29.93;27.90;;;9.60;92.80;;;;;;5034905;28;20172;-89
2023/11/05 08:13:43;;;;;;;29.73;27.50;;;9.70;92.90;;;;;;5052969;28;20644;-89
2023/11/05 08:16:09;;;;;;;31.43;29.30;;;9.80;93.00;;;;;;5034888;28;20208;-88
2023/11/05 08:18:35;;;;;;;33.07;30.47;;;9.80;93.00;;;;;;5056342;28;20199;-90
2023/11/05 08:21:02;;;;;;;34.87;32.23;;;9.90;93.00;;;;;;5056361;28;20187;-90
2023/11/05 08:23:28;;;;;;;34.80;32.23;;;9.90;92.90;;;;;;5038354;28;20259;-89
2023/11/05 08:25:53;;;;;;;34.07;31.30;;;9.90;93.00;;;;;;5038384;28;20202;-89
2023/11/05 08:28:19;;;;;;;31.63;29.50;;;9.90;93.00;;;;;;5056156;28;20180;-89
2023/11/05 08:30:44;;;;;;;33.83;31.20;;;9.90;93.00;;;;;;5056370;28;20547;-90
2023/11/05 08:33:11;;;;;;;34.33;32.13;;;9.90;93.00;;;;;;5038242;28;20243;-89
2023/11/05 08:35:37;;;;;;;34.70;32.20;;;9.90;93.10;;;;;;5056413;28;20184;-89
2023/11/05 08:38:02;;;;;;;34.10;31.80;;;10.00;93.00;;;;;;5038468;28;20204;-89
2023/11/05 08:40:28;;;;;;;30.83;28.67;;;9.90;93.00;;;;;;5038106;28;20530;-90
2023/11/05 08:42:53;;;;;;;32.53;30.00;;;9.90;93.10;;;;;;5037948;28;20726;-90
2023/11/05 08:45:19;;;;;;;50.43;46.90;;;9.90;93.00;;;;;;5038063;28;20386;-90
2023/11/05 08:47:45;;;;;;;49.30;46.13;;;9.90;93.00;;;;;;5038047;28;20203;-89
2023/11/05 08:50:11;;;;;;;47.03;43.73;;;10.00;93.10;;;;;;5038034;28;20203;-90
2023/11/05 08:52:37;;;;;;;31.30;29.20;;;10.10;93.20;;;;;;5037902;28;20578;-90
2023/11/05 08:55:03;;;;;;;31.03;28.93;;;10.00;93.10;;;;;;5037825;28;20242;-89
2023/11/05 08:57:29;;;;;;;50.43;47.33;;;10.00;93.10;;;;;;5037873;28;20716;-90
2023/11/05 08:59:55;;;;;;;44.27;41.67;;;10.00;93.10;;;;;;5055571;28;20164;-91
2023/11/05 09:02:21;;;;;;;32.67;30.37;;;10.00;93.10;;;;;;5037820;28;20174;-90
2023/11/05 09:04:46;;;;;;;31.93;29.67;;;10.10;93.20;;;;;;5037666;28;20172;-88
2023/11/05 09:07:12;;;;;;;50.53;46.97;;;10.10;93.20;;;;;;5037550;28;20176;-91
2023/11/05 09:09:38;;;;;;;52.57;48.97;;;10.10;93.20;;;;;;5037611;28;20267;-90
2023/11/05 09:12:07;;;;;;;32.37;30.20;;;10.20;93.30;;;;;;5037537;28;20187;-91
2023/11/05 09:14:34;;;;;;;32.73;30.43;;;10.20;93.30;;;;;;5038162;28;20176;-91
2023/11/05 09:16:59;;;;;;;33.07;30.90;;;10.20;93.30;;;;;;5037309;28;20207;-88
2023/11/05 09:19:25;;;;;;;50.97;47.57;;;10.30;93.40;;;;;;5037444;28;20183;-90
2023/11/05 09:21:50;;;;;;;51.43;47.93;;;10.40;93.30;;;;;;5037777;28;20640;-91
2023/11/05 09:24:16;;;;;;;33.50;31.43;;;10.50;93.40;;;;;;5037599;28;20184;-89
2023/11/05 09:26:41;;;;;;;34.67;32.20;;;10.50;93.30;;;;;;5037500;28;20196;-92
2023/11/05 09:29:07;;;;;;;52.87;49.50;;;10.50;93.30;;;;;;5037241;28;20180;-90
2023/11/05 09:31:33;;;;;;;50.13;47.03;;;10.50;93.20;;;;;;5037197;28;20651;-91
2023/11/05 09:33:59;;;;;;;31.20;29.13;;;10.60;93.20;;;;;;5055070;28;20183;-90
2023/11/05 09:36:24;;;;;;;31.47;29.60;;;10.50;93.30;;;;;;5036937;28;20200;-90
2023/11/05 09:38:50;;;;;;;43.60;41.00;;;10.60;93.20;;;;;;5054855;28;20247;-88
2023/11/05 09:41:18;;;;;;;44.23;41.43;;;10.60;93.30;;;;;;5037172;28;20558;-89
2023/11/05 09:43:48;;;;;;;28.77;26.97;;;10.60;93.10;;;;;;5054773;28;20172;-90
2023/11/05 09:46:14;;;;;;;29.60;27.40;;;10.70;93.30;;;;;;5036762;28;20691;-90
2023/11/05 09:48:41;;;;;;;28.93;27.07;;;10.60;93.10;;;;;;5036847;28;20210;-90
2023/11/05 09:51:11;;;;;;;35.80;33.37;;;10.70;93.10;;;;;;5036910;28;20226;-90
2023/11/05 09:53:36;;;;;;;33.00;30.57;;;10.60;93.00;;;;;;5036862;28;20160;-90
2023/11/05 09:56:02;;;;;;;34.17;31.67;;;10.70;93.10;;;;;;5036653;28;20760;-90
2023/11/05 09:58:29;;;;;;;27.27;25.20;;;10.70;93.10;;;;;;5036611;28;20263;-90
2023/11/05 10:00:54;;;;;;;34.07;31.93;;;10.70;93.00;;;;;;5036941;28;20190;-89
2023/11/05 10:03:21;;;;;;;36.03;33.20;;;10.70;93.00;;;;;;5036910;28;20176;-90
2023/11/05 10:05:47;;;;;;;28.33;26.07;;;10.70;93.10;;;;;;5037033;28;20249;-90
2023/11/05 10:08:13;;;;;;;29.50;27.20;;;10.80;93.20;;;;;;5036532;28;20180;-90
2023/11/05 10:10:43;;;;;;;37.47;35.00;;;11.00;93.20;;;;;;5054393;28;20276;-89
2023/11/05 10:13:10;;;;;;;38.50;36.03;;;11.10;93.30;;;;;;5036394;28;20168;-90
2023/11/05 10:15:39;;;;;;;37.63;35.43;;;11.20;93.20;;;;;;5036314;28;20196;-90
2023/11/05 10:18:06;;;;;;;36.37;34.00;;;11.20;93.10;;;;;;5054099;28;20739;-89
2023/11/05 10:20:46;;;;;;;29.60;27.10;;;11.30;93.10;;;;;;5036247;28;20528;-90
2023/11/05 10:23:11;;;;;;;28.73;26.10;;;11.40;93.20;;;;;;5036618;28;20174;-90
2023/11/05 10:25:37;;;;;;;26.70;24.73;;;11.40;93.00;;;;;;5036405;28;20196;-91
2023/11/05 10:28:03;;;;;;;25.80;23.97;;;11.30;92.60;;;;;;5036299;28;20210;-90
2023/11/05 10:30:31;;;;;;;28.13;25.90;;;11.30;92.70;;;;;;5038116;28;20176;-92
2023/11/05 10:32:57;;;;;;;26.83;25.03;;;11.40;92.80;;;;;;5037972;28;20259;-90
2023/11/05 10:35:27;;;;;;;25.00;23.40;;;11.30;92.60;;;;;;5035964;28;20210;-90
2023/11/05 10:37:54;;;;;;;27.60;24.93;;;11.30;92.50;;;;;;5035904;28;20291;-90
2023/11/05 10:40:20;;;;;;;28.23;25.93;;;11.40;92.50;;;;;;5053287;28;20176;-91
2023/11/05 10:42:48;;;;;;;27.00;25.07;;;11.40;92.30;;;;;;5035819;28;20202;-90
2023/11/05 10:45:15;;;;;;;25.10;23.13;;;11.30;92.20;;;;;;5035898;28;20582;-90
2023/11/05 10:47:41;;;;;;;24.77;23.07;;;11.30;92.20;;;;;;5035907;28;20195;-90
2023/11/05 10:50:14;;;;;;;24.67;23.00;;;11.30;92.10;;;;;;5036286;28;20183;-91
2023/11/05 10:52:43;;;;;;;24.20;22.60;;;11.30;92.10;;;;;;5035819;28;20635;-91
2023/11/05 10:55:10;;;;;;;23.73;22.17;;;11.20;92.00;;;;;;5035718;28;20211;-89
2023/11/05 10:57:40;;;;;;;21.70;20.40;;;11.10;91.90;;;;;;5053398;28;20214;-88
2023/11/05 11:00:11;;;;;;;22.40;20.90;;;11.10;91.90;;;;;;5053387;28;20171;-90
2023/11/05 11:02:38;;;;;;;22.10;20.77;;;11.20;92.00;;;;;;5035771;28;20217;-89
2023/11/05 11:05:04;;;;;;;23.70;22.30;;;11.30;92.00;;;;;;5053548;28;20192;-88
2023/11/05 11:07:30;;;;;;;24.00;22.50;;;11.20;91.90;;;;;;5035812;28;20175;-86
2023/11/05 11:09:57;;;;;;;23.27;21.77;;;11.20;91.90;;;;;;5053734;28;20233;-89
2023/11/05 11:12:30;;;;;;;23.07;21.60;;;11.20;91.90;;;;;;5035501;28;20599;-89
2023/11/05 11:14:56;;;;;;;23.23;21.80;;;11.20;91.80;;;;;;5053252;28;20157;-89
2023/11/05 11:17:21;;;;;;;21.40;20.00;;;11.30;91.80;;;;;;5035296;28;20210;-89
2023/11/05 11:19:49;;;;;;;21.57;20.17;;;11.30;91.60;;;;;;5035468;28;20203;-89
2023/11/05 11:22:16;;;;;;;21.90;20.23;;;11.30;91.60;;;;;;5053698;28;20191;-89
2023/11/05 11:24:43;;;;;;;21.80;20.50;;;11.30;91.30;;;;;;5035528;28;20203;-89
2023/11/05 11:27:14;;;;;;;21.50;20.27;;;11.30;91.40;;;;;;5035562;28;20230;-89
2023/11/05 11:29:45;;;;;;;21.30;19.87;;;11.30;91.40;;;;;;5035404;28;20176;-90
2023/11/05 11:32:11;;;;;;;20.30;19.20;;;11.40;91.60;;;;;;5053461;28;20638;-87
2023/11/05 11:34:37;;;;;;;20.87;19.67;;;11.40;91.60;;;;;;5035188;28;20663;-91
2023/11/05 11:37:04;;;;;;;20.67;19.37;;;11.40;91.80;;;;;;5035268;28;20211;-89
2023/11/05 11:39:30;;;;;;;19.97;18.57;;;11.40;91.80;;;;;;5035644;28;20168;-89
2023/11/05 11:41:56;;;;;;;24.67;23.17;;;11.40;91.90;;;;;;5035078;28;20685;-90
2023/11/05 11:44:23;;;;;;;20.97;19.47;;;11.40;91.80;;;;;;5052965;28;20538;-90
2023/11/05 11:46:49;;;;;;;20.60;19.40;;;11.50;91.70;;;;;;5052876;28;20192;-89
2023/11/05 11:49:15;;;;;;;21.03;19.83;;;11.40;91.50;;;;;;5035195;28;20183;-89
2023/11/05 11:51:41;;;;;;;21.80;20.30;;;11.50;91.10;;;;;;5036553;28;20190;-88
2023/11/05 11:54:09;;;;;;;32.00;29.90;;;11.50;91.00;;;;;;5057026;28;20172;-89
2023/11/05 11:56:34;;;;;;;31.23;29.07;;;11.50;91.10;;;;;;5038785;28;20204;-89
2023/11/05 11:59:04;;;;;;;30.47;28.57;;;11.60;91.30;;;;;;5038876;28;20179;-90
2023/11/05 12:01:32;;;;;;;19.33;17.87;;;11.60;91.30;;;;;;5056720;28;20176;-89
2023/11/05 12:03:58;;;;;;;20.20;18.70;;;11.60;91.30;;;;;;5039053;28;20172;-91
2023/11/05 12:06:25;;;;;;;30.87;29.07;;;11.60;91.20;;;;;;5038864;28;20277;-90
2023/11/05 12:08:52;;;;;;;32.23;30.07;;;11.60;91.20;;;;;;5038928;28;20262;-89
2023/11/05 12:11:19;;;;;;;20.33;19.13;;;11.60;91.20;;;;;;5038877;28;20171;-89
2023/11/05 12:13:46;;;;;;;20.67;19.47;;;11.60;91.30;;;;;;5039218;28;20656;-89
2023/11/05 12:16:13;;;;;;;32.43;30.43;;;11.60;91.30;;;;;;5056528;28;20706;-90
2023/11/05 12:18:42;;;;;;;32.73;30.63;;;11.60;91.40;;;;;;5056725;28;20186;-88
2023/11/05 12:21:13;;;;;;;19.87;18.47;;;11.60;91.50;;;;;;5038818;28;20168;-92
2023/11/05 12:23:40;;;;;;;20.47;18.93;;;11.60;91.60;;;;;;5039034;28;20179;-89
2023/11/05 12:26:09;;;;;;;32.00;29.77;;;11.60;91.60;;;;;;5038565;28;20203;-90
2023/11/05 12:28:35;;;;;;;31.47;29.27;;;11.50;91.40;;;;;;5038516;28;20660;-90